createdAt,value
2022-11-07T00:04:48.379Z,71.40
2022-11-07T00:09:53.088Z,71.30
2022-11-07T00:14:56.508Z,71.20
2022-11-07T00:20:00.491Z,71.10
2022-11-07T00:25:06.191Z,71.20
2022-11-07T00:30:10.291Z,71.20
2022-11-07T00:35:13.808Z,71.30
2022-11-07T00:40:19.206Z,71.20
2022-11-07T00:45:22.627Z,71.20
2022-11-07T00:50:26.049Z,71.20
2022-11-07T00:55:32.736Z,71.40
2022-11-07T01:00:36.206Z,71.40
2022-11-07T01:05:39.681Z,71.60
2022-11-07T01:10:44.523Z,71.80
2022-11-07T01:15:47.979Z,71.70
2022-11-07T01:20:53.315Z,71.80
2022-11-07T01:25:58.091Z,71.90
2022-11-07T01:31:04.502Z,72.20
2022-11-07T01:36:11.077Z,72.20
2022-11-07T01:41:25.651Z,72.20
2022-11-07T01:46:32.019Z,72.00
2022-11-07T01:51:40.629Z,72.10
2022-11-07T01:56:46.294Z,72.20
2022-11-07T02:01:50.071Z,72.20
2022-11-07T02:06:59.420Z,72.30
2022-11-07T02:17:36.697Z,72.80
2022-11-07T02:22:49.000Z,73.00
2022-11-07T02:27:57.361Z,73.10
2022-11-07T02:33:01.091Z,73.10
2022-11-07T02:38:07.931Z,73.40
2022-11-07T02:43:14.514Z,74.30
2022-11-07T02:48:18.706Z,73.40
2022-11-07T02:53:22.521Z,73.60
2022-11-07T02:58:27.982Z,74.00
2022-11-07T03:03:32.369Z,74.40
2022-11-07T03:08:36.078Z,74.10
2022-11-07T03:13:42.811Z,73.80
2022-11-07T03:18:46.655Z,73.70
2022-11-07T03:23:50.448Z,73.60
2022-11-07T03:28:55.294Z,73.60
2022-11-07T03:33:58.671Z,73.50
2022-11-07T03:39:04.572Z,73.50
2022-11-07T03:44:09.653Z,73.40
2022-11-07T03:49:12.956Z,73.40
2022-11-07T03:54:16.346Z,73.60
2022-11-07T03:59:21.507Z,73.60
2022-11-07T04:04:25.154Z,73.60
2022-11-07T04:09:28.482Z,73.70
2022-11-07T04:14:51.362Z,73.80
2022-11-07T04:19:56.766Z,73.80
2022-11-07T04:25:00.472Z,73.80
2022-11-07T04:30:20.025Z,73.90
2022-11-07T04:35:25.694Z,73.90
2022-11-07T04:40:29.720Z,74.00
2022-11-07T04:45:34.673Z,74.10
2022-11-07T04:50:38.458Z,74.10
2022-11-07T04:55:42.635Z,74.10
2022-11-07T05:00:48.709Z,74.20
2022-11-07T05:05:52.415Z,74.10
2022-11-07T05:10:55.759Z,74.00
2022-11-07T05:16:00.799Z,74.10
2022-11-07T05:21:04.568Z,74.10
2022-11-07T05:26:08.200Z,74.20
2022-11-07T05:31:17.006Z,74.30
2022-11-07T05:36:22.338Z,74.30
2022-11-07T05:41:26.552Z,74.20
2022-11-07T05:46:31.503Z,74.20
2022-11-07T05:51:35.110Z,74.20
2022-11-07T05:56:42.463Z,74.40
2022-11-07T06:01:51.117Z,74.40
2022-11-07T06:06:55.034Z,74.40
2022-11-07T06:11:58.759Z,74.60
2022-11-07T06:17:03.495Z,74.70
2022-11-07T06:22:09.999Z,74.60
2022-11-07T06:27:19.815Z,74.60
2022-11-07T06:32:25.400Z,74.60
2022-11-07T06:37:29.546Z,74.60
2022-11-07T06:42:33.330Z,74.50
2022-11-07T06:47:38.675Z,74.50
2022-11-07T06:52:42.604Z,74.40
2022-11-07T06:57:46.055Z,74.40
2022-11-07T07:02:58.325Z,74.30
2022-11-07T07:08:02.711Z,74.20
2022-11-07T07:13:06.484Z,74.10
2022-11-07T07:18:11.508Z,74.10
2022-11-07T07:23:14.909Z,74.10
2022-11-07T07:28:18.370Z,74.20
2022-11-07T07:33:23.135Z,74.10
2022-11-07T07:38:26.512Z,74.10
2022-11-07T07:43:31.557Z,74.10
2022-11-07T07:48:39.402Z,74.10
2022-11-07T07:53:43.519Z,74.10
2022-11-07T07:58:48.022Z,74.00
2022-11-07T08:04:02.561Z,74.10
2022-11-07T08:09:07.672Z,74.20
2022-11-07T08:14:11.789Z,74.10
2022-11-07T08:19:18.851Z,74.40
2022-11-07T08:24:22.568Z,74.40
2022-11-07T08:29:26.512Z,74.10
2022-11-07T08:34:31.683Z,74.00
2022-11-07T08:39:35.596Z,73.80
2022-11-07T08:44:39.296Z,73.60
2022-11-07T08:49:48.452Z,73.50
2022-11-07T08:54:52.620Z,73.50
2022-11-07T09:00:04.953Z,73.40
2022-11-07T09:05:11.748Z,73.50
2022-11-07T09:10:19.550Z,73.40
2022-11-07T09:15:23.507Z,73.20
2022-11-07T09:20:29.307Z,73.00
2022-11-07T09:25:36.308Z,72.50
2022-11-07T09:30:41.011Z,71.50
2022-11-07T09:35:48.246Z,71.80
2022-11-07T09:41:00.889Z,71.60
2022-11-07T09:46:19.698Z,71.60
2022-11-07T09:51:34.484Z,71.30
2022-11-07T09:56:40.034Z,71.40
2022-11-07T10:01:43.899Z,71.10
2022-11-07T10:06:55.431Z,71.60
2022-11-07T10:12:12.158Z,70.60
2022-11-07T10:17:26.133Z,70.50
2022-11-07T10:22:44.081Z,69.80
2022-11-07T10:28:06.660Z,69.50
2022-11-07T10:33:22.068Z,69.60
2022-11-07T10:38:31.067Z,69.20
2022-11-07T10:43:40.927Z,68.90
2022-11-07T10:48:56.717Z,69.00
2022-11-07T10:54:02.633Z,69.00
2022-11-07T10:59:14.610Z,68.00
2022-11-07T11:04:22.729Z,67.70
2022-11-07T11:09:32.559Z,67.90
2022-11-07T11:14:36.224Z,66.90
2022-11-07T11:19:51.473Z,67.20
2022-11-07T11:25:05.402Z,67.10
2022-11-07T11:30:14.021Z,67.00
2022-11-07T11:35:42.017Z,66.90
2022-11-07T11:40:56.224Z,66.60
2022-11-07T11:46:12.739Z,66.30
2022-11-07T11:51:21.938Z,66.00
2022-11-07T11:56:40.385Z,65.70
2022-11-07T12:01:53.861Z,65.70
2022-11-07T12:07:07.935Z,65.00
2022-11-07T12:12:32.290Z,64.80
2022-11-07T12:17:43.618Z,64.90
2022-11-07T12:23:02.550Z,64.40
2022-11-07T12:28:30.070Z,64.40
2022-11-07T12:33:41.787Z,64.10
2022-11-07T12:39:05.730Z,63.60
2022-11-07T12:44:32.523Z,62.90
2022-11-07T12:49:58.010Z,62.80
2022-11-07T12:55:05.946Z,62.80
2022-11-07T13:00:24.499Z,62.80
2022-11-07T13:05:40.325Z,62.50
2022-11-07T13:10:54.407Z,62.00
2022-11-07T13:16:15.628Z,61.90
2022-11-07T13:21:19.520Z,62.00
2022-11-07T13:32:07.501Z,60.00
2022-11-07T13:37:21.262Z,60.70
2022-11-07T13:42:28.368Z,60.80
2022-11-07T13:47:39.121Z,60.30
2022-11-07T13:52:52.142Z,59.50
2022-11-07T13:57:56.809Z,59.90
2022-11-07T14:03:01.839Z,59.70
2022-11-07T14:08:08.193Z,59.40
2022-11-07T14:13:13.802Z,59.80
2022-11-07T14:18:20.031Z,60.10
2022-11-07T14:23:26.040Z,60.10
2022-11-07T14:28:36.249Z,60.20
2022-11-07T14:33:49.754Z,60.50
2022-11-07T14:38:55.543Z,61.00
2022-11-07T14:44:03.736Z,60.90
2022-11-07T14:49:19.432Z,61.20
2022-11-07T14:54:24.476Z,61.40
2022-11-07T14:59:33.443Z,61.60
2022-11-07T15:04:42.057Z,61.70
2022-11-07T15:09:45.661Z,62.00
2022-11-07T15:15:01.723Z,62.20
2022-11-07T15:20:08.822Z,62.50
2022-11-07T15:25:25.946Z,62.90
2022-11-07T15:30:32.462Z,63.20
2022-11-07T15:35:44.410Z,63.30
2022-11-07T15:40:48.967Z,63.30
2022-11-07T15:45:54.378Z,63.40
2022-11-07T15:50:59.796Z,63.50
2022-11-07T15:56:08.290Z,63.70
2022-11-07T16:01:12.819Z,63.80
2022-11-07T16:06:24.736Z,63.80
2022-11-07T16:11:28.171Z,63.80
2022-11-07T16:16:34.813Z,63.90
2022-11-07T16:21:39.818Z,64.00
2022-11-07T16:26:46.867Z,64.10
2022-11-07T16:31:50.392Z,64.20
2022-11-07T16:36:56.508Z,64.30
2022-11-07T16:41:59.903Z,64.30
2022-11-07T16:47:04.460Z,64.30
2022-11-07T16:52:13.982Z,64.30
2022-11-07T16:57:19.412Z,64.40
2022-11-07T17:02:25.101Z,64.40
2022-11-07T17:07:30.763Z,64.40
2022-11-07T17:12:34.832Z,64.50
2022-11-07T17:17:38.268Z,64.60
2022-11-07T17:22:46.667Z,64.70
2022-11-07T17:27:51.084Z,64.80
2022-11-07T17:32:54.784Z,64.80
2022-11-07T17:37:59.914Z,64.90
2022-11-07T17:43:03.498Z,65.10
2022-11-07T17:48:08.496Z,65.50
2022-11-07T17:53:15.485Z,66.70
2022-11-07T17:58:19.150Z,66.00
2022-11-07T18:03:22.960Z,66.10
2022-11-07T18:08:50.601Z,66.10
2022-11-07T18:13:52.079Z,66.30
2022-11-07T18:18:56.851Z,66.50
2022-11-07T18:24:02.118Z,66.80
2022-11-07T18:29:08.219Z,67.00
2022-11-07T18:34:14.261Z,67.00
2022-11-07T18:39:22.190Z,67.00
2022-11-07T18:44:26.489Z,67.20
2022-11-07T18:49:30.055Z,67.40
2022-11-07T18:54:35.173Z,67.70
2022-11-07T18:59:39.534Z,68.00
2022-11-07T19:04:43.951Z,68.00
2022-11-07T19:09:48.978Z,68.10
2022-11-07T19:14:52.466Z,68.00
2022-11-07T19:19:56.298Z,68.30
2022-11-07T19:25:01.130Z,68.40
2022-11-07T19:30:06.228Z,68.50
2022-11-07T19:35:10.479Z,68.50
2022-11-07T19:40:16.111Z,68.50
2022-11-07T19:45:20.507Z,68.70
2022-11-07T19:50:25.066Z,69.20
2022-11-07T19:55:30.223Z,69.60
2022-11-07T20:00:37.186Z,69.80
2022-11-07T20:05:41.360Z,69.90
2022-11-07T20:10:48.215Z,69.90
2022-11-07T20:15:58.159Z,70.10
2022-11-07T20:21:04.686Z,70.10
2022-11-07T20:26:13.689Z,70.20
2022-11-07T20:31:19.915Z,70.20
2022-11-07T20:36:23.747Z,70.10
2022-11-07T20:41:29.346Z,70.20
2022-11-07T20:46:34.165Z,70.50
2022-11-07T20:51:38.253Z,70.80
2022-11-07T20:56:44.533Z,71.10
2022-11-07T21:01:51.015Z,71.30
2022-11-07T21:06:55.075Z,71.30
2022-11-07T21:11:59.805Z,71.30
2022-11-07T21:17:04.193Z,71.20
2022-11-07T21:22:07.821Z,71.30
2022-11-07T21:27:12.675Z,71.40
2022-11-07T21:32:16.104Z,71.40
2022-11-07T21:37:19.482Z,71.70
2022-11-07T21:42:24.738Z,71.90
2022-11-07T21:47:28.241Z,71.90
2022-11-07T21:52:31.675Z,72.00
2022-11-07T21:57:36.407Z,72.00
2022-11-07T22:02:39.919Z,71.90
2022-11-07T22:07:43.628Z,71.90
2022-11-07T22:12:48.371Z,71.90
2022-11-07T22:17:52.162Z,72.00
2022-11-07T22:22:55.488Z,72.00
2022-11-07T22:28:00.221Z,71.80
2022-11-07T22:33:04.495Z,71.90
2022-11-07T22:38:10.121Z,72.00
2022-11-07T22:43:18.792Z,72.20
2022-11-07T22:48:23.164Z,71.90
2022-11-07T22:53:26.599Z,72.30
2022-11-07T22:58:31.353Z,72.60
2022-11-07T23:03:35.130Z,72.60
2022-11-07T23:08:39.076Z,72.70
2022-11-07T23:13:44.363Z,72.70
2022-11-07T23:19:31.287Z,72.60
2022-11-07T23:24:34.771Z,72.60
2022-11-07T23:29:38.203Z,72.80
2022-11-07T23:34:42.986Z,73.20
2022-11-07T23:39:46.707Z,73.10
2022-11-07T23:45:08.476Z,73.10
2022-11-07T23:50:31.121Z,73.10
2022-11-07T23:55:42.425Z,73.10
